Time;durP1;ratioP1;P1;durP2;ratioP2;P2;SDS_P1;SDS_P2;PMS_P1;PMS_P2;Temp;Humidity;BMP_temperature;BMP_pressure;BME280_temperature;BME280_humidity;BME280_pressure;Samples;Min_cycle;Max_cycle;Signal;HPM_P1;HPM_P2
2023/03/07 00:01:09;;;;;;;11.80;9.85;;;4.50;99.90;;;;;;4892728;29;21034;-78
2023/03/07 00:03:37;;;;;;;11.02;9.10;;;4.50;99.90;;;;;;4896607;29;20235;-77
2023/03/07 00:06:08;;;;;;;10.77;9.68;;;4.50;99.90;;;;;;4887299;29;20218;-76
2023/03/07 00:08:36;;;;;;;11.98;10.77;;;4.50;99.90;;;;;;4886624;29;20226;-80
2023/03/07 00:11:07;;;;;;;12.82;10.93;;;4.50;99.90;;;;;;4884578;29;20681;-76
2023/03/07 00:13:36;;;;;;;16.70;11.03;;;4.40;99.90;;;;;;4889287;29;20222;-77
2023/03/07 00:16:07;;;;;;;12.82;10.45;;;4.40;99.90;;;;;;4889619;29;20459;-77
2023/03/07 00:18:37;;;;;;;10.25;8.88;;;4.50;99.90;;;;;;4884644;29;20223;-78
2023/03/07 00:21:07;;;;;;;13.68;9.63;;;4.50;99.90;;;;;;4887196;29;20203;-78
2023/03/07 00:23:36;;;;;;;13.52;9.80;;;4.40;99.90;;;;;;4885834;29;20237;-75
2023/03/07 00:26:06;;;;;;;10.52;9.50;;;4.40;99.90;;;;;;4884703;29;20269;-78
2023/03/07 00:28:35;;;;;;;14.75;9.88;;;4.40;99.90;;;;;;4884325;29;20231;-78
2023/03/07 00:31:05;;;;;;;10.25;9.25;;;4.40;99.90;;;;;;4886521;29;20258;-78
2023/03/07 00:33:34;;;;;;;10.75;9.68;;;4.50;99.90;;;;;;4886986;29;20209;-76
2023/03/07 00:36:06;;;;;;;11.50;10.30;;;4.50;99.90;;;;;;4890298;29;20213;-76
2023/03/07 00:38:35;;;;;;;10.65;9.68;;;4.50;99.90;;;;;;4886082;29;20236;-75
2023/03/07 00:41:05;;;;;;;10.43;9.18;;;4.50;99.90;;;;;;4890445;29;20207;-77
2023/03/07 00:43:34;;;;;;;9.50;8.65;;;4.50;99.90;;;;;;4886962;29;20244;-76
2023/03/07 00:46:02;;;;;;;11.10;9.77;;;4.40;99.90;;;;;;4864101;29;20218;-77
2023/03/07 00:48:33;;;;;;;10.13;9.10;;;4.50;99.90;;;;;;4883668;29;20229;-75
2023/03/07 00:51:05;;;;;;;11.80;10.07;;;4.50;99.90;;;;;;4865818;29;20576;-78
2023/03/07 00:53:34;;;;;;;11.45;8.90;;;4.50;99.90;;;;;;4886857;29;20237;-79
2023/03/07 00:56:04;;;;;;;10.35;9.20;;;4.40;99.90;;;;;;4888056;29;20210;-78
2023/03/07 00:58:36;;;;;;;9.60;8.65;;;4.40;99.90;;;;;;4888366;29;20223;-77
2023/03/07 01:01:06;;;;;;;10.25;9.15;;;4.40;99.90;;;;;;4892658;29;20205;-79
2023/03/07 01:03:35;;;;;;;9.88;8.70;;;4.30;99.90;;;;;;4889809;29;20673;-78
2023/03/07 01:06:06;;;;;;;9.63;8.60;;;4.20;99.90;;;;;;4888965;29;20209;-77
2023/03/07 01:08:34;;;;;;;10.48;9.38;;;4.30;99.90;;;;;;4888422;29;20289;-78
2023/03/07 01:11:05;;;;;;;9.95;8.70;;;4.40;99.90;;;;;;4878445;29;20538;-76
2023/03/07 01:13:34;;;;;;;13.07;9.35;;;4.30;99.90;;;;;;4890139;29;20214;-76
2023/03/07 01:16:11;;;;;;;11.02;9.57;;;4.30;99.90;;;;;;4884803;29;20286;-76
2023/03/07 01:18:40;;;;;;;12.33;9.20;;;4.30;99.90;;;;;;4878228;29;20324;-77
2023/03/07 01:21:14;;;;;;;10.90;9.13;;;4.30;99.90;;;;;;4884272;29;20465;-77
2023/03/07 01:23:43;;;;;;;8.93;8.02;;;4.40;99.90;;;;;;4887483;29;20285;-80
2023/03/07 01:26:15;;;;;;;9.60;8.32;;;4.40;99.90;;;;;;4890646;29;20222;-77
2023/03/07 01:28:43;;;;;;;8.88;8.18;;;4.40;99.90;;;;;;4886426;29;20272;-79
2023/03/07 01:31:11;;;;;;;10.60;8.00;;;4.50;99.90;;;;;;4885492;29;20227;-78
2023/03/07 01:33:39;;;;;;;9.85;8.95;;;4.50;99.90;;;;;;4890578;29;20221;-79
2023/03/07 01:36:17;;;;;;;10.55;9.07;;;4.40;99.90;;;;;;4885692;29;20764;-79
2023/03/07 01:38:47;;;;;;;11.05;8.70;;;4.30;99.90;;;;;;4887310;29;20741;-78
2023/03/07 01:41:16;;;;;;;10.70;9.60;;;4.30;99.90;;;;;;4885735;29;20202;-77
2023/03/07 01:43:44;;;;;;;10.55;9.45;;;4.20;99.90;;;;;;4884583;29;20751;-76
2023/03/07 01:46:33;;;;;;;10.35;9.13;;;4.20;99.90;;;;;;4887553;29;22667;-76
2023/03/07 01:49:08;;;;;;;10.25;9.18;;;4.30;99.90;;;;;;4888881;29;20305;-77
2023/03/07 01:51:41;;;;;;;9.57;8.57;;;4.20;99.90;;;;;;4889679;29;20213;-76
2023/03/07 01:54:12;;;;;;;10.35;9.15;;;4.30;99.90;;;;;;4887236;29;20225;-76
2023/03/07 01:56:41;;;;;;;10.65;9.60;;;4.30;99.90;;;;;;4889305;29;20230;-76
2023/03/07 01:59:10;;;;;;;10.63;9.45;;;4.40;99.90;;;;;;4888981;29;20222;-79
2023/03/07 02:01:39;;;;;;;11.35;10.20;;;4.40;99.90;;;;;;4889834;29;20202;-77
2023/03/07 02:04:13;;;;;;;10.02;9.05;;;4.30;99.90;;;;;;4885908;29;20203;-78
2023/03/07 02:06:43;;;;;;;8.90;8.00;;;4.40;99.90;;;;;;4891757;29;20195;-79
2023/03/07 02:09:15;;;;;;;11.90;9.13;;;4.40;99.90;;;;;;4890089;29;20257;-77
2023/03/07 02:11:45;;;;;;;10.75;8.75;;;4.40;99.90;;;;;;4890452;29;20637;-76
2023/03/07 02:14:13;;;;;;;10.35;9.30;;;4.40;99.90;;;;;;4890804;29;20237;-79
2023/03/07 02:16:41;;;;;;;10.45;9.35;;;4.40;99.90;;;;;;4891200;29;20207;-77
2023/03/07 02:19:29;;;;;;;10.73;9.30;;;4.40;99.90;;;;;;4894960;29;20225;-76
2023/03/07 02:22:09;;;;;;;12.45;10.10;;;4.40;99.90;;;;;;4889374;29;20313;-78
2023/03/07 02:24:45;;;;;;;10.50;9.40;;;4.40;99.90;;;;;;4885239;29;20211;-81
2023/03/07 02:27:14;;;;;;;10.32;9.23;;;4.40;99.90;;;;;;4887773;29;20264;-77
2023/03/07 02:29:43;;;;;;;10.65;9.40;;;4.50;99.90;;;;;;4890053;29;20280;-77
2023/03/07 02:32:11;;;;;;;11.60;9.88;;;4.50;99.90;;;;;;4896197;29;20232;-76
2023/03/07 02:34:39;;;;;;;12.50;9.05;;;4.40;99.90;;;;;;4888972;29;20237;-76
2023/03/07 02:37:10;;;;;;;11.15;9.88;;;4.40;99.90;;;;;;4887165;29;20236;-78
2023/03/07 02:39:41;;;;;;;11.25;9.88;;;4.50;99.90;;;;;;4887359;29;20966;-79
2023/03/07 02:42:14;;;;;;;9.50;8.70;;;4.40;99.90;;;;;;4874396;29;20197;-78
2023/03/07 02:44:45;;;;;;;10.13;9.00;;;4.40;99.90;;;;;;4873842;29;20207;-77
2023/03/07 02:47:13;;;;;;;9.95;8.90;;;4.40;99.90;;;;;;4888065;29;20223;-76
2023/03/07 02:49:41;;;;;;;10.82;9.73;;;4.40;99.90;;;;;;4894259;29;20225;-77
2023/03/07 02:52:10;;;;;;;9.68;8.82;;;4.40;99.90;;;;;;4891652;29;20272;-81
2023/03/07 02:54:38;;;;;;;11.27;9.20;;;4.40;99.90;;;;;;4874165;29;20196;-79
2023/03/07 02:57:06;;;;;;;10.88;9.82;;;4.40;99.90;;;;;;4885486;29;20210;-76
2023/03/07 02:59:34;;;;;;;11.32;9.50;;;4.40;99.90;;;;;;4891806;29;20262;-78
2023/03/07 03:02:04;;;;;;;10.65;9.55;;;4.40;99.90;;;;;;4881253;29;20199;-78
2023/03/07 03:04:32;;;;;;;10.98;9.50;;;4.50;99.90;;;;;;4889280;29;20215;-78
2023/03/07 03:07:00;;;;;;;10.75;9.65;;;4.40;99.90;;;;;;4892201;29;20214;-79
2023/03/07 03:09:28;;;;;;;11.90;9.82;;;4.40;99.90;;;;;;4887143;29;20828;-78
2023/03/07 03:11:56;;;;;;;9.88;8.88;;;4.30;99.90;;;;;;4891647;29;20227;-79
2023/03/07 03:14:24;;;;;;;9.68;8.77;;;4.30;99.90;;;;;;4867333;29;20219;-80
2023/03/07 03:16:53;;;;;;;11.23;10.05;;;4.30;99.90;;;;;;4892387;29;20305;-78
2023/03/07 03:19:22;;;;;;;10.20;8.77;;;4.30;99.90;;;;;;4891714;29;20309;-78
2023/03/07 03:21:50;;;;;;;11.65;10.07;;;4.20;99.90;;;;;;4889422;29;20204;-77
2023/03/07 03:24:19;;;;;;;10.18;9.27;;;4.30;99.90;;;;;;4890570;29;20203;-77
2023/03/07 03:26:47;;;;;;;13.00;9.60;;;4.40;99.90;;;;;;4890653;29;20206;-77
2023/03/07 03:29:15;;;;;;;9.88;8.93;;;4.40;99.90;;;;;;4891016;29;20225;-79
2023/03/07 03:31:44;;;;;;;9.75;8.75;;;4.40;99.90;;;;;;4893340;29;20225;-76
2023/03/07 03:34:12;;;;;;;10.63;9.57;;;4.40;99.90;;;;;;4892411;29;20202;-78
2023/03/07 03:36:42;;;;;;;10.55;9.27;;;4.40;99.90;;;;;;4890811;29;20212;-77
2023/03/07 03:39:10;;;;;;;13.30;9.02;;;4.40;99.90;;;;;;4890582;29;20238;-79
2023/03/07 03:41:38;;;;;;;11.85;9.65;;;4.30;99.90;;;;;;4872828;29;20205;-76
2023/03/07 03:44:07;;;;;;;11.45;9.85;;;4.40;99.90;;;;;;4889414;29;20200;-77
2023/03/07 03:46:35;;;;;;;10.30;9.38;;;4.30;99.90;;;;;;4890825;29;20232;-77
2023/03/07 03:49:04;;;;;;;10.38;9.32;;;4.30;99.90;;;;;;4889857;29;20309;-77
2023/03/07 03:51:32;;;;;;;11.10;10.00;;;4.40;99.90;;;;;;4885811;29;20222;-80
2023/03/07 03:54:02;;;;;;;10.65;9.40;;;4.40;99.90;;;;;;4891058;29;20286;-76
2023/03/07 03:56:30;;;;;;;11.73;9.70;;;4.40;99.90;;;;;;4889921;29;20227;-77
2023/03/07 03:58:58;;;;;;;13.07;9.52;;;4.40;99.90;;;;;;4871373;29;20223;-78
2023/03/07 04:01:28;;;;;;;11.63;10.10;;;4.40;99.90;;;;;;4891385;29;20230;-77
2023/03/07 04:03:56;;;;;;;11.90;9.88;;;4.30;99.90;;;;;;4889044;29;20198;-78
2023/03/07 04:06:26;;;;;;;11.45;10.32;;;4.30;99.90;;;;;;4886368;29;20237;-76
2023/03/07 04:08:55;;;;;;;12.63;10.23;;;4.40;99.90;;;;;;4884954;29;20259;-77
2023/03/07 04:11:25;;;;;;;12.30;10.18;;;4.40;99.90;;;;;;4889467;29;20217;-77
2023/03/07 04:13:53;;;;;;;12.05;9.40;;;4.30;99.90;;;;;;4885627;29;20298;-79
2023/03/07 04:16:22;;;;;;;12.82;10.65;;;4.30;99.90;;;;;;4885825;29;20205;-77
2023/03/07 04:18:51;;;;;;;10.73;9.65;;;4.30;99.90;;;;;;4888573;29;21138;-73
2023/03/07 04:21:20;;;;;;;11.05;9.95;;;4.40;99.90;;;;;;4888433;29;20199;-79
2023/03/07 04:23:54;;;;;;;10.52;9.43;;;4.40;99.90;;;;;;4886952;29;20210;-77
2023/03/07 04:26:22;;;;;;;12.13;9.50;;;4.40;99.90;;;;;;4883931;29;20198;-78
2023/03/07 04:28:52;;;;;;;10.93;9.82;;;4.40;99.90;;;;;;4888276;29;20253;-77
2023/03/07 04:31:22;;;;;;;11.65;9.63;;;4.40;99.90;;;;;;4888424;29;20230;-77
2023/03/07 04:33:51;;;;;;;10.93;9.82;;;4.40;99.90;;;;;;4883463;29;20574;-79
2023/03/07 04:36:20;;;;;;;14.02;10.93;;;4.40;99.90;;;;;;4887102;29;20214;-77
2023/03/07 04:38:49;;;;;;;12.32;9.65;;;4.40;99.90;;;;;;4888081;29;20222;-74
2023/03/07 04:41:19;;;;;;;14.73;11.15;;;4.30;99.90;;;;;;4883702;29;20262;-77
2023/03/07 04:43:47;;;;;;;11.23;10.02;;;4.30;99.90;;;;;;4889680;29;20209;-76
2023/03/07 04:46:18;;;;;;;11.38;10.18;;;4.30;99.90;;;;;;4884487;29;20222;-76
2023/03/07 04:48:47;;;;;;;11.85;10.43;;;4.40;99.90;;;;;;4886214;29;20320;-79
2023/03/07 04:51:15;;;;;;;11.50;10.30;;;4.40;99.90;;;;;;4886049;29;20211;-77
2023/03/07 04:53:44;;;;;;;14.05;10.98;;;4.30;99.90;;;;;;4882829;29;20210;-75
2023/03/07 04:56:14;;;;;;;11.02;9.88;;;4.30;99.90;;;;;;4889078;29;20226;-80
2023/03/07 04:58:43;;;;;;;13.00;11.43;;;4.30;99.90;;;;;;4882962;29;20237;-78
2023/03/07 05:01:11;;;;;;;11.85;10.48;;;4.30;99.90;;;;;;4887470;29;20222;-75
2023/03/07 05:03:41;;;;;;;11.45;10.35;;;4.30;99.90;;;;;;4886546;29;20206;-77
2023/03/07 05:06:14;;;;;;;10.25;9.25;;;4.30;99.90;;;;;;4888281;29;20207;-79
2023/03/07 05:08:43;;;;;;;10.90;9.90;;;4.30;99.90;;;;;;4892187;29;20227;-77
2023/03/07 05:11:13;;;;;;;12.93;10.98;;;4.10;99.90;;;;;;4886769;29;20204;-78
2023/03/07 05:13:41;;;;;;;10.75;9.65;;;4.00;99.90;;;;;;4885368;29;20456;-78
2023/03/07 05:16:09;;;;;;;12.85;10.55;;;4.10;99.90;;;;;;4889157;29;20197;-77
2023/03/07 05:18:37;;;;;;;9.43;8.52;;;4.10;99.90;;;;;;4890462;29;20235;-79
2023/03/07 05:21:07;;;;;;;10.35;9.35;;;4.10;99.90;;;;;;4886605;29;20232;-76
2023/03/07 05:23:36;;;;;;;9.95;9.07;;;4.00;99.90;;;;;;4879887;29;20208;-77
2023/03/07 05:26:04;;;;;;;10.40;9.27;;;4.10;99.90;;;;;;4886776;29;20210;-77
2023/03/07 05:28:32;;;;;;;10.85;9.73;;;4.20;99.90;;;;;;4887145;29;20220;-76
2023/03/07 05:31:01;;;;;;;12.65;9.73;;;4.10;99.90;;;;;;4871175;29;20543;-74
2023/03/07 05:33:29;;;;;;;11.18;9.00;;;4.10;99.90;;;;;;4882161;29;20231;-77
2023/03/07 05:35:59;;;;;;;11.02;9.60;;;4.20;99.90;;;;;;4887201;29;20221;-75
2023/03/07 05:38:29;;;;;;;11.27;9.88;;;4.20;99.90;;;;;;4879182;29;20239;-78
2023/03/07 05:40:57;;;;;;;11.40;9.30;;;4.20;99.90;;;;;;4880499;29;20218;-76
2023/03/07 05:43:26;;;;;;;10.18;9.30;;;4.20;99.90;;;;;;4887789;29;20264;-76
2023/03/07 05:45:54;;;;;;;10.70;9.60;;;4.20;99.90;;;;;;4881229;29;20216;-78
2023/03/07 05:48:22;;;;;;;12.40;10.48;;;4.10;99.90;;;;;;4866300;29;20225;-79
2023/03/07 05:50:50;;;;;;;14.85;10.13;;;4.20;99.90;;;;;;4885224;29;20229;-77
2023/03/07 05:53:18;;;;;;;15.15;9.75;;;4.10;99.90;;;;;;4888732;29;20262;-74
2023/03/07 05:55:48;;;;;;;10.40;9.40;;;4.20;99.90;;;;;;4885318;29;20216;-77
2023/03/07 05:58:16;;;;;;;9.95;8.80;;;4.10;99.90;;;;;;4889101;29;20818;-75
2023/03/07 06:00:44;;;;;;;11.25;10.15;;;4.10;99.90;;;;;;4886029;29;20673;-75
2023/03/07 06:03:12;;;;;;;11.30;10.10;;;4.10;99.90;;;;;;4888645;29;20584;-77
2023/03/07 06:05:41;;;;;;;9.68;8.80;;;4.00;99.90;;;;;;4881666;29;20804;-75
2023/03/07 06:08:09;;;;;;;12.02;9.02;;;4.00;99.90;;;;;;4888391;29;20232;-76
2023/03/07 06:10:38;;;;;;;9.82;8.65;;;3.90;99.90;;;;;;4878814;29;20214;-77
2023/03/07 06:13:15;;;;;;;9.35;8.45;;;3.90;99.90;;;;;;4883378;29;20225;-73
2023/03/07 06:15:43;;;;;;;11.38;9.75;;;4.00;99.90;;;;;;4894878;29;20217;-77
2023/03/07 06:18:13;;;;;;;12.98;9.93;;;4.00;99.90;;;;;;4894086;29;20804;-77
2023/03/07 06:20:41;;;;;;;10.32;9.30;;;4.00;99.90;;;;;;4886409;29;20212;-79
2023/03/07 06:23:09;;;;;;;13.55;11.38;;;4.10;99.90;;;;;;4885284;29;20216;-76
2023/03/07 06:25:40;;;;;;;9.57;8.63;;;4.10;99.90;;;;;;4883883;29;20209;-74
2023/03/07 06:28:09;;;;;;;9.52;8.52;;;4.00;99.90;;;;;;4883311;29;20205;-75
2023/03/07 06:30:37;;;;;;;9.98;9.07;;;4.10;99.90;;;;;;4883880;29;20769;-75
2023/03/07 06:33:06;;;;;;;9.77;8.77;;;4.20;99.90;;;;;;4887677;29;20309;-77
2023/03/07 06:35:38;;;;;;;8.57;7.75;;;4.20;99.90;;;;;;4868489;29;25273;-79
2023/03/07 06:38:06;;;;;;;9.57;8.55;;;4.20;99.90;;;;;;4884470;29;20206;-78
2023/03/07 06:40:34;;;;;;;9.13;7.97;;;4.30;99.90;;;;;;4883133;29;20230;-78
2023/03/07 06:43:02;;;;;;;9.85;8.93;;;4.30;99.90;;;;;;4885837;29;20602;-78
2023/03/07 06:45:32;;;;;;;10.50;8.82;;;4.30;99.90;;;;;;4879933;29;20246;-76
2023/03/07 06:48:00;;;;;;;10.50;8.43;;;4.30;99.90;;;;;;4890086;29;20201;-79
2023/03/07 06:50:28;;;;;;;10.68;9.13;;;4.40;99.90;;;;;;4883859;29;20448;-76
2023/03/07 06:53:02;;;;;;;9.85;8.90;;;4.40;99.90;;;;;;4885233;29;20230;-80
2023/03/07 06:55:30;;;;;;;9.65;8.63;;;4.40;99.90;;;;;;4890722;29;20572;-77
2023/03/07 06:57:59;;;;;;;12.13;8.85;;;4.40;99.90;;;;;;4891727;29;20216;-75
2023/03/07 07:00:27;;;;;;;9.38;8.48;;;4.40;99.90;;;;;;4892399;29;20205;-77
2023/03/07 07:02:57;;;;;;;10.20;9.15;;;4.40;99.90;;;;;;4893124;29;20209;-76
2023/03/07 07:05:25;;;;;;;10.68;9.52;;;4.30;99.90;;;;;;4893122;29;20767;-76
2023/03/07 07:07:54;;;;;;;9.60;7.97;;;4.30;99.90;;;;;;4895293;29;20205;-73
2023/03/07 07:10:22;;;;;;;10.60;9.50;;;4.40;99.90;;;;;;4891377;29;21010;-76
2023/03/07 07:12:53;;;;;;;10.35;9.40;;;4.40;99.90;;;;;;4889824;29;20978;-77
2023/03/07 07:15:21;;;;;;;10.07;9.07;;;4.50;99.90;;;;;;4892023;29;20217;-76
2023/03/07 07:17:51;;;;;;;9.45;8.13;;;4.50;99.90;;;;;;4894905;29;20717;-77
2023/03/07 07:20:20;;;;;;;9.68;8.70;;;4.50;99.90;;;;;;4885982;29;20306;-74
2023/03/07 07:22:48;;;;;;;10.55;9.50;;;4.50;99.90;;;;;;4888821;29;20201;-76
2023/03/07 07:25:17;;;;;;;9.00;7.97;;;4.60;99.90;;;;;;4887024;29;20222;-76
2023/03/07 07:27:45;;;;;;;9.95;8.82;;;4.60;99.90;;;;;;4881010;29;20211;-77
2023/03/07 07:30:14;;;;;;;9.95;8.95;;;4.70;99.90;;;;;;4888927;29;20226;-78
2023/03/07 07:32:43;;;;;;;10.00;8.57;;;4.80;99.90;;;;;;4884357;29;20210;-79
2023/03/07 07:35:12;;;;;;;15.25;9.75;;;4.80;99.90;;;;;;4886081;29;20207;-75
2023/03/07 07:37:42;;;;;;;10.07;8.50;;;4.90;99.90;;;;;;4883361;29;20211;-77
2023/03/07 07:40:11;;;;;;;9.48;8.50;;;4.90;99.90;;;;;;4883406;29;20233;-77
2023/03/07 07:42:40;;;;;;;9.27;8.48;;;4.90;99.90;;;;;;4886520;29;20614;-77
2023/03/07 07:45:09;;;;;;;9.73;8.73;;;5.00;99.90;;;;;;4878129;29;20254;-77
2023/03/07 07:47:37;;;;;;;9.95;8.95;;;5.00;99.90;;;;;;4886043;29;20219;-78
2023/03/07 07:50:06;;;;;;;9.88;8.98;;;5.00;99.90;;;;;;4884661;29;20215;-76
2023/03/07 07:52:34;;;;;;;11.18;10.18;;;5.00;99.90;;;;;;4890052;29;20530;-78
2023/03/07 07:55:04;;;;;;;10.65;9.55;;;5.10;99.90;;;;;;4886927;29;20222;-77
2023/03/07 07:57:33;;;;;;;10.02;8.48;;;5.10;99.90;;;;;;4894652;29;20199;-78
2023/03/07 08:00:02;;;;;;;12.02;10.93;;;5.20;99.90;;;;;;4888004;29;20871;-77
2023/03/07 08:02:31;;;;;;;10.95;10.05;;;5.20;99.90;;;;;;4879227;29;20209;-78
2023/03/07 08:04:59;;;;;;;9.90;9.00;;;5.50;99.90;;;;;;4885399;29;20201;-74
2023/03/07 08:07:28;;;;;;;11.20;9.77;;;5.50;99.90;;;;;;4883551;29;20550;-79
2023/03/07 08:09:56;;;;;;;13.00;10.35;;;5.40;99.90;;;;;;4887108;29;20592;-76
2023/03/07 08:12:25;;;;;;;9.83;8.90;;;5.70;99.90;;;;;;4887437;29;20293;-76
2023/03/07 08:14:55;;;;;;;11.03;8.97;;;6.00;99.90;;;;;;4883703;29;20546;-76
2023/03/07 08:17:23;;;;;;;10.10;9.20;;;6.20;99.90;;;;;;4881234;29;20839;-78
2023/03/07 08:19:52;;;;;;;10.07;9.17;;;6.50;99.90;;;;;;4868548;29;20482;-80
2023/03/07 08:22:20;;;;;;;10.00;9.10;;;6.60;99.90;;;;;;4881888;29;20471;-79
2023/03/07 08:24:49;;;;;;;11.00;9.90;;;6.90;99.90;;;;;;4871478;29;20450;-76
2023/03/07 08:27:18;;;;;;;8.83;8.00;;;6.80;99.90;;;;;;4887319;29;20211;-78
2023/03/07 08:29:52;;;;;;;9.73;8.83;;;6.90;99.90;;;;;;4887223;29;20494;-78
2023/03/07 08:32:20;;;;;;;11.60;9.70;;;6.80;99.90;;;;;;4892373;29;20470;-77
2023/03/07 08:34:49;;;;;;;9.33;8.50;;;6.90;99.90;;;;;;4888492;29;20949;-77
2023/03/07 08:37:17;;;;;;;10.00;9.10;;;6.90;99.90;;;;;;4880482;29;20807;-77
2023/03/07 08:39:46;;;;;;;10.93;9.80;;;7.00;99.90;;;;;;4885870;29;20569;-79
2023/03/07 08:42:14;;;;;;;11.70;8.90;;;7.10;99.90;;;;;;4890762;29;20487;-78
2023/03/07 08:44:43;;;;;;;11.30;9.47;;;7.00;99.90;;;;;;4885415;29;20463;-78
2023/03/07 08:47:12;;;;;;;12.93;9.50;;;7.00;99.90;;;;;;4887623;29;20475;-77
2023/03/07 08:49:40;;;;;;;9.47;8.43;;;7.20;99.90;;;;;;4887138;29;20481;-78
2023/03/07 08:52:08;;;;;;;10.23;9.23;;;7.00;99.90;;;;;;4870291;29;20886;-77
2023/03/07 08:54:37;;;;;;;10.10;9.00;;;6.90;99.90;;;;;;4888651;29;21132;-79
2023/03/07 08:57:05;;;;;;;11.00;7.93;;;6.90;99.90;;;;;;4891680;29;20454;-77
2023/03/07 08:59:33;;;;;;;9.57;8.60;;;6.80;98.40;;;;;;4888263;29;20480;-77
2023/03/07 09:02:02;;;;;;;7.83;7.23;;;6.70;95.00;;;;;;4891652;29;20458;-77
2023/03/07 09:04:32;;;;;;;9.13;8.20;;;6.40;95.20;;;;;;4894817;29;20459;-77
2023/03/07 09:07:00;;;;;;;8.67;7.87;;;6.30;95.00;;;;;;4888258;29;21005;-80
2023/03/07 09:09:29;;;;;;;8.67;7.83;;;6.30;94.70;;;;;;4890869;29;20484;-74
2023/03/07 09:11:58;;;;;;;7.80;7.10;;;6.40;94.70;;;;;;4889135;29;20463;-77
2023/03/07 09:14:27;;;;;;;8.07;7.38;;;6.50;94.70;;;;;;4889286;29;20471;-76
2023/03/07 09:16:56;;;;;;;7.50;6.90;;;6.50;94.80;;;;;;4889709;29;20266;-77
2023/03/07 09:19:24;;;;;;;8.67;7.77;;;6.50;93.50;;;;;;4883924;29;20471;-77
2023/03/07 09:21:57;;;;;;;9.33;8.00;;;6.50;91.80;;;;;;4881010;29;20451;-78
2023/03/07 09:24:25;;;;;;;7.93;7.27;;;6.30;91.30;;;;;;4882253;29;20451;-79
2023/03/07 09:26:53;;;;;;;7.20;6.60;;;6.30;90.00;;;;;;4883541;29;20526;-81
2023/03/07 09:29:21;;;;;;;7.60;7.00;;;6.40;90.10;;;;;;4881033;29;20471;-78
2023/03/07 09:31:49;;;;;;;8.53;7.70;;;6.40;90.30;;;;;;4866966;29;20520;-79
2023/03/07 09:34:18;;;;;;;8.53;7.17;;;6.40;90.30;;;;;;4884782;29;20479;-75
2023/03/07 09:36:46;;;;;;;8.00;7.30;;;6.30;87.60;;;;;;4882001;29;20617;-78
2023/03/07 09:39:16;;;;;;;7.70;7.00;;;6.20;87.10;;;;;;4884540;29;20482;-79
2023/03/07 09:42:00;;;;;;;8.53;7.47;;;6.00;88.40;;;;;;4890751;29;20463;-77
2023/03/07 09:44:44;;;;;;;8.10;7.40;;;6.00;88.60;;;;;;4882327;29;20462;-76
2023/03/07 09:47:31;;;;;;;12.70;7.37;;;6.00;88.20;;;;;;4880242;29;20893;-77
2023/03/07 09:50:00;;;;;;;7.00;6.40;;;6.00;88.00;;;;;;4883340;29;20475;-77
2023/03/07 09:52:31;;;;;;;8.27;7.47;;;6.00;85.80;;;;;;4890690;29;20462;-77
2023/03/07 09:55:03;;;;;;;8.43;7.63;;;6.00;86.00;;;;;;4874094;29;20474;-77
2023/03/07 09:57:34;;;;;;;8.13;7.33;;;5.90;83.60;;;;;;4893581;29;20458;-79
2023/03/07 10:00:06;;;;;;;8.30;7.60;;;6.00;84.50;;;;;;4890767;29;20565;-78
2023/03/07 10:02:43;;;;;;;8.53;7.73;;;6.00;84.70;;;;;;4884352;29;20463;-77
2023/03/07 10:05:23;;;;;;;8.20;7.50;;;6.00;84.40;;;;;;4890498;29;20481;-77
2023/03/07 10:07:52;;;;;;;8.83;7.53;;;6.00;88.20;;;;;;4893042;29;20441;-77
2023/03/07 10:10:25;;;;;;;8.80;7.90;;;5.80;86.40;;;;;;4885634;29;20479;-79
2023/03/07 10:13:09;;;;;;;9.43;8.60;;;5.80;89.00;;;;;;4888602;29;20462;-78
2023/03/07 10:15:45;;;;;;;8.73;8.03;;;5.80;87.90;;;;;;4892584;29;20478;-79
2023/03/07 10:18:26;;;;;;;8.50;7.57;;;5.80;90.00;;;;;;4871610;29;20463;-77
2023/03/07 10:21:02;;;;;;;7.57;6.97;;;5.80;88.00;;;;;;4882871;29;20276;-81
2023/03/07 10:23:50;;;;;;;8.13;7.43;;;5.80;90.60;;;;;;4871975;29;20561;-78
2023/03/07 10:26:24;;;;;;;9.32;8.45;;;5.60;83.70;;;;;;4882927;29;20191;-78
2023/03/07 10:28:53;;;;;;;7.20;6.60;;;5.50;86.70;;;;;;4872233;29;20642;-78
2023/03/07 10:31:25;;;;;;;9.83;7.40;;;5.70;87.10;;;;;;4880273;29;21099;-78
2023/03/07 10:33:54;;;;;;;7.90;7.30;;;5.80;87.40;;;;;;4863530;29;21045;-80
2023/03/07 10:36:33;;;;;;;7.65;6.70;;;5.80;85.20;;;;;;4884204;29;20222;-77
2023/03/07 10:39:06;;;;;;;8.00;7.30;;;5.90;83.00;;;;;;4877130;29;20227;-74
2023/03/07 10:41:36;;;;;;;7.80;6.57;;;5.80;81.20;;;;;;4874310;29;20463;-76
2023/03/07 10:44:04;;;;;;;7.68;6.97;;;5.80;79.50;;;;;;4878123;29;20447;-77
2023/03/07 10:46:34;;;;;;;7.63;6.93;;;5.80;80.30;;;;;;4857623;29;20569;-78
2023/03/07 10:49:13;;;;;;;8.43;6.33;;;5.90;78.50;;;;;;4881335;29;20226;-77
2023/03/07 10:51:51;;;;;;;7.32;6.68;;;5.90;78.80;;;;;;4868796;29;20450;-76
2023/03/07 10:54:22;;;;;;;7.77;6.97;;;6.00;75.70;;;;;;4879592;29;20321;-77
2023/03/07 10:57:09;;;;;;;7.40;6.70;;;6.00;74.40;;;;;;4890129;29;20980;-77
2023/03/07 10:59:39;;;;;;;7.40;6.55;;;6.00;74.10;;;;;;4888384;29;20219;-77
2023/03/07 11:02:29;;;;;;;7.00;6.30;;;6.00;72.10;;;;;;4888682;29;20207;-77
2023/03/07 11:04:58;;;;;;;7.85;6.80;;;5.90;72.30;;;;;;4885770;29;20470;-80
2023/03/07 11:07:30;;;;;;;7.63;6.93;;;5.90;72.70;;;;;;4878840;29;20311;-80
2023/03/07 11:10:00;;;;;;;7.40;6.40;;;5.90;71.00;;;;;;4881999;29;20242;-77
2023/03/07 11:12:30;;;;;;;8.05;7.28;;;5.90;70.10;;;;;;4879995;29;20455;-77
2023/03/07 11:15:15;;;;;;;7.37;6.73;;;5.90;64.40;;;;;;4880859;29;20230;-78
2023/03/07 11:17:45;;;;;;;9.27;7.30;;;5.90;64.00;;;;;;4863740;29;20454;-78
2023/03/07 11:20:24;;;;;;;9.18;6.90;;;5.80;62.40;;;;;;4878631;29;20277;-76
2023/03/07 11:23:14;;;;;;;8.80;6.33;;;5.90;58.10;;;;;;4875832;29;20213;-77
2023/03/07 11:25:43;;;;;;;6.88;6.20;;;5.90;58.90;;;;;;4858790;29;20581;-78
2023/03/07 11:28:26;;;;;;;7.47;6.75;;;6.00;58.20;;;;;;4865780;29;20200;-78
2023/03/07 11:31:01;;;;;;;6.97;6.30;;;5.90;58.00;;;;;;4866820;29;20239;-78
2023/03/07 11:33:44;;;;;;;8.77;7.37;;;5.90;57.20;;;;;;4880567;29;20559;-77
2023/03/07 11:36:31;;;;;;;7.73;6.87;;;5.90;55.20;;;;;;4880332;29;20486;-77
2023/03/07 11:39:03;;;;;;;10.37;7.40;;;5.90;56.40;;;;;;4880295;29;21099;-80
2023/03/07 11:41:34;;;;;;;8.47;7.53;;;5.90;53.00;;;;;;4879950;29;20447;-77
2023/03/07 11:44:22;;;;;;;10.02;7.35;;;5.80;56.90;;;;;;4884414;29;20969;-80
2023/03/07 11:47:14;;;;;;;8.07;6.93;;;5.80;52.50;;;;;;4842392;29;1150127;-79
2023/03/07 11:49:54;;;;;;;9.53;6.63;;;5.90;53.10;;;;;;4860343;29;20866;-78
2023/03/07 11:52:40;;;;;;;8.67;7.10;;;6.00;54.30;;;;;;4888295;29;20527;-77
2023/03/07 11:55:24;;;;;;;7.73;7.03;;;6.00;56.10;;;;;;4892350;29;20468;-80
2023/03/07 11:58:10;;;;;;;8.33;6.80;;;6.00;54.10;;;;;;4892077;29;21003;-77
2023/03/07 12:00:51;;;;;;;8.00;7.20;;;5.90;52.20;;;;;;4893635;29;21038;-80
2023/03/07 12:03:37;;;;;;;8.20;7.40;;;6.00;52.80;;;;;;4891094;29;20195;-78
2023/03/07 12:06:26;;;;;;;8.50;7.40;;;6.00;51.50;;;;;;4893776;29;20203;-80
2023/03/07 12:09:10;;;;;;;7.90;7.00;;;6.00;52.90;;;;;;4896973;29;20475;-78
2023/03/07 12:11:58;;;;;;;7.90;7.10;;;6.00;53.90;;;;;;4889575;29;20491;-80
2023/03/07 12:14:36;;;;;;;7.13;6.53;;;5.90;51.70;;;;;;4889020;29;20472;-79
2023/03/07 12:17:17;;;;;;;7.70;6.90;;;5.90;50.60;;;;;;4886871;29;20491;-77
2023/03/07 12:20:02;;;;;;;8.23;6.57;;;5.90;50.40;;;;;;4889279;29;20616;-78
2023/03/07 12:22:40;;;;;;;7.30;6.60;;;6.00;51.00;;;;;;4891355;29;20456;-78
2023/03/07 12:25:27;;;;;;;8.10;7.33;;;6.00;52.40;;;;;;4884370;29;20538;-78
2023/03/07 12:28:05;;;;;;;9.63;7.20;;;6.10;51.20;;;;;;4879261;29;20459;-76
2023/03/07 12:30:42;;;;;;;8.40;7.60;;;6.10;52.60;;;;;;4874129;29;20462;-78
2023/03/07 12:33:20;;;;;;;7.70;6.80;;;6.00;51.80;;;;;;4882420;29;20473;-79
2023/03/07 12:35:53;;;;;;;7.13;5.90;;;6.10;52.00;;;;;;4880861;29;20493;-79
2023/03/07 12:38:30;;;;;;;9.10;6.87;;;6.00;50.60;;;;;;4882440;29;20463;-78
2023/03/07 12:41:03;;;;;;;6.43;5.87;;;6.00;49.60;;;;;;4892261;29;20872;-77
2023/03/07 12:43:36;;;;;;;5.77;5.23;;;6.10;49.50;;;;;;4889139;29;20823;-78
2023/03/07 12:46:16;;;;;;;6.97;5.80;;;6.10;49.30;;;;;;4881849;29;20466;-78
2023/03/07 12:48:51;;;;;;;10.03;6.63;;;6.20;50.70;;;;;;4886121;29;20787;-80
2023/03/07 12:51:23;;;;;;;6.67;6.07;;;6.20;49.40;;;;;;4882940;29;20544;-79
2023/03/07 12:53:58;;;;;;;6.67;6.10;;;6.10;50.00;;;;;;4885625;29;20491;-77
2023/03/07 12:56:31;;;;;;;6.47;5.87;;;6.20;49.40;;;;;;4892252;29;20542;-80
2023/03/07 12:59:06;;;;;;;6.57;6.07;;;6.30;49.50;;;;;;4886191;29;20491;-78
2023/03/07 13:01:38;;;;;;;6.10;5.60;;;6.50;50.90;;;;;;4892149;29;20446;-79
2023/03/07 13:04:15;;;;;;;5.63;5.23;;;6.50;48.90;;;;;;4889731;29;20466;-79
2023/03/07 13:06:44;;;;;;;5.63;5.20;;;6.40;50.00;;;;;;4891131;29;20490;-78
2023/03/07 13:09:19;;;;;;;5.83;5.43;;;6.40;46.30;;;;;;4892486;29;20475;-79
2023/03/07 13:12:22;;;;;;;6.57;5.97;;;6.50;46.60;;;;;;4888039;29;20454;-79